Terminal Aerodrome Forecast
Issued by NWS

Home | Current Version | Previous Version | Text Only | Print | Product List | Glossary On
Versions: 1 2 3 4 5 6 7 8 9 10 11 12 13 14 15 16
945
FTUS43 KMQT 221730
TAFCMX
TAF
KCMX 221730Z 2218/2318 25010KT P6SM BKN015
     FM221900 25010KT P6SM BKN200
     FM230300 23009KT P6SM BKN040
     FM230600 24010KT P6SM -SHSN BKN025
     FM231100 28011G21KT P6SM BKN025
     FM231700 30011G20KT P6SM BKN035=

USA.gov is the U.S. government's official web portal to all federal, state and local government web resources and services.